Time;durP1;ratioP1;P1;durP2;ratioP2;P2;SDS_P1;SDS_P2;PMS_P1;PMS_P2;Temp;Humidity;BMP_temperature;BMP_pressure;BME280_temperature;BME280_humidity;BME280_pressure;Samples;Min_cycle;Max_cycle;Signal;HPM_P1;HPM_P2
2021/09/08 00:00:26;;;;;;;15.55;11.23;;;14.00;85.20;;;;;;5036234;28;20264;-83
2021/09/08 00:02:53;;;;;;;16.65;14.57;;;14.00;85.20;;;;;;5053916;28;20246;-83
2021/09/08 00:05:19;;;;;;;16.60;11.45;;;14.00;85.10;;;;;;5053972;28;20180;-83
2021/09/08 00:07:45;;;;;;;12.82;11.10;;;13.90;85.10;;;;;;5053840;28;20176;-83
2021/09/08 00:10:11;;;;;;;13.27;11.88;;;13.90;85.10;;;;;;5053818;28;20196;-83
2021/09/08 00:12:38;;;;;;;14.10;12.60;;;13.90;85.10;;;;;;5053704;28;20192;-83
2021/09/08 00:15:06;;;;;;;14.10;10.70;;;13.90;85.00;;;;;;5053815;28;20633;-83
2021/09/08 00:17:32;;;;;;;9.33;8.30;;;13.80;85.00;;;;;;5035689;28;20176;-83
2021/09/08 00:19:58;;;;;;;7.78;6.97;;;13.80;85.00;;;;;;5052875;28;20656;-83
2021/09/08 00:22:24;;;;;;;10.03;7.50;;;13.80;85.30;;;;;;5053488;28;20199;-83
2021/09/08 00:24:49;;;;;;;9.90;8.53;;;13.80;85.30;;;;;;5035828;28;20191;-83
2021/09/08 00:27:16;;;;;;;9.97;8.30;;;13.80;85.40;;;;;;5035668;28;20183;-83
2021/09/08 00:29:41;;;;;;;10.00;8.60;;;13.70;85.40;;;;;;5053604;28;20172;-83
2021/09/08 00:32:07;;;;;;;9.37;8.30;;;13.80;85.20;;;;;;5053415;28;20698;-83
2021/09/08 00:34:33;;;;;;;12.23;9.37;;;13.70;85.00;;;;;;5053542;28;20168;-83
2021/09/08 00:36:59;;;;;;;11.07;8.87;;;13.70;85.00;;;;;;5035910;28;20211;-83
2021/09/08 00:39:25;;;;;;;9.90;8.83;;;13.70;85.00;;;;;;5053586;28;20167;-83
2021/09/08 00:41:50;;;;;;;10.63;9.37;;;13.60;85.00;;;;;;5053242;28;20627;-83
2021/09/08 00:44:16;;;;;;;10.03;8.50;;;13.60;85.10;;;;;;5035429;28;20172;-83
2021/09/08 00:46:43;;;;;;;9.77;8.43;;;13.60;85.10;;;;;;5035504;28;20172;-83
2021/09/08 00:49:09;;;;;;;9.97;8.53;;;13.60;85.00;;;;;;5035480;28;20196;-83
2021/09/08 00:51:36;;;;;;;14.57;11.10;;;13.50;84.70;;;;;;5052984;28;20585;-84
2021/09/08 00:54:12;;;;;;;14.30;10.80;;;13.50;84.60;;;;;;5053186;28;20200;-83
2021/09/08 00:56:40;;;;;;;15.37;11.17;;;13.50;85.00;;;;;;5053174;28;20175;-83
2021/09/08 00:59:06;;;;;;;15.53;11.40;;;13.50;85.50;;;;;;5053078;28;20164;-83
2021/09/08 01:01:32;;;;;;;13.47;10.40;;;13.40;85.70;;;;;;5035195;28;20192;-83
2021/09/08 01:03:58;;;;;;;9.17;8.20;;;13.40;85.90;;;;;;5053032;28;20544;-83
2021/09/08 01:06:24;;;;;;;8.73;7.83;;;13.40;86.00;;;;;;5035238;28;20180;-83
2021/09/08 01:08:50;;;;;;;9.27;8.17;;;13.40;86.80;;;;;;5035195;28;20187;-83
2021/09/08 01:11:17;;;;;;;9.67;8.73;;;13.30;86.90;;;;;;5034996;28;20668;-83
2021/09/08 01:13:43;;;;;;;13.77;9.83;;;13.30;87.10;;;;;;5052918;28;20203;-83
2021/09/08 01:16:09;;;;;;;12.93;10.70;;;13.20;87.20;;;;;;5035026;28;20176;-83
2021/09/08 01:18:36;;;;;;;13.50;11.43;;;13.30;87.50;;;;;;5052837;28;20264;-83
2021/09/08 01:21:02;;;;;;;12.07;10.77;;;13.30;87.80;;;;;;5034992;28;20254;-83
2021/09/08 01:23:28;;;;;;;14.23;11.77;;;13.40;88.00;;;;;;5052921;28;20689;-83
2021/09/08 01:25:56;;;;;;;16.40;11.43;;;13.30;88.10;;;;;;5052805;28;20204;-83
2021/09/08 01:28:22;;;;;;;15.77;13.80;;;13.30;88.40;;;;;;5052886;28;20176;-83
2021/09/08 01:30:54;;;;;;;15.87;12.50;;;13.20;88.60;;;;;;5055179;28;20225;-83
2021/09/08 01:33:20;;;;;;;13.50;12.10;;;13.20;88.90;;;;;;5038977;28;20201;-83
2021/09/08 01:35:45;;;;;;;13.17;11.67;;;13.20;88.90;;;;;;5056865;28;20254;-83
2021/09/08 01:38:11;;;;;;;17.50;12.50;;;13.20;88.90;;;;;;5057033;28;20176;-83
2021/09/08 01:40:37;;;;;;;15.07;12.03;;;13.20;88.90;;;;;;5038755;28;20168;-83
2021/09/08 01:43:03;;;;;;;13.93;12.00;;;13.20;88.90;;;;;;5039048;28;20200;-83
2021/09/08 01:45:28;;;;;;;18.60;11.83;;;13.20;89.00;;;;;;5038623;28;20180;-83
2021/09/08 01:47:55;;;;;;;14.83;10.40;;;13.20;88.90;;;;;;5056604;28;20552;-83
2021/09/08 01:50:22;;;;;;;17.07;10.87;;;13.20;88.90;;;;;;5056505;28;20742;-83
2021/09/08 01:52:49;;;;;;;12.17;10.97;;;13.20;88.80;;;;;;5038234;28;20687;-83
2021/09/08 01:55:14;;;;;;;16.13;12.67;;;13.20;88.70;;;;;;5057024;28;20168;-84
2021/09/08 01:57:41;;;;;;;15.40;12.90;;;13.20;88.50;;;;;;5038475;28;20555;-83
2021/09/08 02:00:09;;;;;;;14.17;12.67;;;13.20;88.70;;;;;;5038655;28;20184;-83
2021/09/08 02:02:35;;;;;;;14.87;12.50;;;13.20;88.70;;;;;;5056935;28;20203;-83
2021/09/08 02:05:01;;;;;;;14.83;11.57;;;13.20;88.70;;;;;;5038484;28;20168;-83
2021/09/08 02:07:27;;;;;;;15.10;12.20;;;13.10;88.70;;;;;;5056240;28;20234;-83
2021/09/08 02:09:52;;;;;;;16.03;13.20;;;13.10;88.70;;;;;;5056119;28;20180;-83
2021/09/08 02:12:18;;;;;;;15.77;12.50;;;13.00;88.60;;;;;;5056140;28;20199;-83
2021/09/08 02:14:44;;;;;;;17.17;13.87;;;12.90;88.80;;;;;;5056085;28;20211;-83
2021/09/08 02:17:10;;;;;;;13.10;11.47;;;13.00;88.80;;;;;;5038085;28;20172;-83
2021/09/08 02:19:35;;;;;;;16.50;13.33;;;13.00;88.80;;;;;;5038061;28;20183;-83
2021/09/08 02:22:01;;;;;;;21.13;13.87;;;13.00;88.70;;;;;;5055831;28;20196;-83
2021/09/08 02:24:27;;;;;;;15.50;11.70;;;13.00;88.60;;;;;;5038158;28;20636;-83
2021/09/08 02:26:53;;;;;;;20.33;14.37;;;13.00;88.50;;;;;;5055892;28;20183;-83
2021/09/08 02:29:18;;;;;;;18.13;13.70;;;13.00;88.60;;;;;;5055833;28;20187;-83
2021/09/08 02:31:44;;;;;;;17.03;12.97;;;13.10;88.90;;;;;;5055918;28;20203;-83
2021/09/08 02:34:10;;;;;;;18.07;13.43;;;13.10;88.80;;;;;;5037870;28;20182;-83
2021/09/08 02:36:35;;;;;;;15.80;12.53;;;13.10;88.70;;;;;;5037781;28;20173;-83
2021/09/08 02:39:01;;;;;;;20.57;13.37;;;13.10;88.50;;;;;;5037747;28;20179;-83
2021/09/08 02:41:27;;;;;;;18.27;11.93;;;13.20;88.40;;;;;;5054615;28;20537;-83
2021/09/08 02:43:53;;;;;;;14.60;12.50;;;13.20;88.20;;;;;;5055512;28;20168;-83
2021/09/08 02:46:19;;;;;;;15.23;11.83;;;13.20;88.10;;;;;;5037713;28;20175;-83
2021/09/08 02:48:44;;;;;;;14.87;11.00;;;13.10;88.00;;;;;;5055493;28;20168;-83
2021/09/08 02:51:10;;;;;;;14.50;11.20;;;13.10;88.00;;;;;;5055219;28;21547;-83
2021/09/08 02:53:36;;;;;;;13.30;10.77;;;13.10;87.90;;;;;;5055742;28;20238;-83
2021/09/08 02:56:03;;;;;;;18.17;10.90;;;13.10;87.80;;;;;;5037488;28;20176;-83
2021/09/08 02:58:29;;;;;;;16.73;12.10;;;13.10;87.80;;;;;;5055328;28;20160;-83
2021/09/08 03:00:56;;;;;;;12.57;10.80;;;13.00;87.60;;;;;;5055113;28;20172;-83
2021/09/08 03:03:21;;;;;;;14.53;10.37;;;13.00;87.40;;;;;;5055400;28;20659;-83
2021/09/08 03:05:48;;;;;;;15.03;11.63;;;13.00;87.30;;;;;;5055419;28;20172;-83
2021/09/08 03:08:14;;;;;;;14.27;10.60;;;13.00;87.20;;;;;;5037135;28;20706;-83
2021/09/08 03:10:43;;;;;;;15.63;11.07;;;13.00;87.00;;;;;;5055077;28;20180;-83
2021/09/08 03:13:08;;;;;;;20.67;11.07;;;13.00;86.90;;;;;;5036897;28;20584;-83
2021/09/08 03:15:34;;;;;;;12.30;10.43;;;13.00;86.90;;;;;;5036938;28;20168;-83
2021/09/08 03:18:00;;;;;;;13.30;10.67;;;12.90;87.00;;;;;;5054943;28;20168;-83
2021/09/08 03:20:25;;;;;;;14.23;9.70;;;12.90;86.90;;;;;;5037050;28;20176;-83
2021/09/08 03:22:51;;;;;;;20.67;10.13;;;12.90;86.80;;;;;;5036858;28;20227;-83
2021/09/08 03:25:16;;;;;;;13.03;9.60;;;12.90;86.80;;;;;;5055333;28;20200;-84
2021/09/08 03:27:42;;;;;;;12.63;10.50;;;12.80;86.80;;;;;;5054611;28;20192;-84
2021/09/08 03:30:08;;;;;;;14.67;11.03;;;12.80;87.10;;;;;;5054646;28;20543;-83
2021/09/08 03:32:34;;;;;;;15.40;11.70;;;12.80;87.30;;;;;;5054524;28;20199;-84
2021/09/08 03:35:00;;;;;;;14.13;10.67;;;12.80;87.40;;;;;;5054806;28;20175;-83
2021/09/08 03:37:26;;;;;;;17.93;11.97;;;12.80;87.60;;;;;;5036525;28;20255;-83
2021/09/08 03:39:52;;;;;;;18.57;12.97;;;12.80;88.00;;;;;;5054450;28;20652;-84
2021/09/08 03:42:19;;;;;;;23.13;12.07;;;12.80;88.10;;;;;;5054301;28;20192;-84
2021/09/08 03:44:44;;;;;;;15.37;11.10;;;12.70;88.10;;;;;;5054312;28;20651;-84
2021/09/08 03:47:10;;;;;;;15.30;11.33;;;12.70;88.20;;;;;;5054383;28;20168;-83
2021/09/08 03:49:36;;;;;;;17.50;11.20;;;12.70;88.30;;;;;;5036388;28;20601;-83
2021/09/08 03:52:02;;;;;;;14.30;11.63;;;12.70;88.30;;;;;;5054119;28;20591;-83
2021/09/08 03:54:27;;;;;;;13.30;10.97;;;12.70;88.40;;;;;;5054095;28;20164;-83
2021/09/08 03:56:53;;;;;;;13.97;11.03;;;12.60;88.50;;;;;;5054109;28;20176;-84
2021/09/08 03:59:21;;;;;;;13.63;11.33;;;12.70;88.50;;;;;;5054135;28;20611;-84
2021/09/08 04:01:47;;;;;;;15.37;11.57;;;12.50;88.70;;;;;;5036166;28;20223;-83
2021/09/08 04:04:13;;;;;;;13.07;10.83;;;12.50;88.90;;;;;;5036022;28;20225;-83
2021/09/08 04:06:39;;;;;;;15.03;11.20;;;12.40;89.10;;;;;;5053872;28;20172;-83
2021/09/08 04:09:04;;;;;;;18.03;12.87;;;12.50;89.00;;;;;;5053862;28;20164;-84
2021/09/08 04:11:30;;;;;;;17.17;11.77;;;12.40;89.40;;;;;;5053788;28;20275;-84
2021/09/08 04:13:56;;;;;;;14.30;12.20;;;12.50;89.60;;;;;;5053733;28;20195;-83
2021/09/08 04:16:21;;;;;;;20.67;12.40;;;12.50;89.70;;;;;;5035857;28;20222;-84
2021/09/08 04:18:47;;;;;;;15.03;11.07;;;12.50;89.70;;;;;;5035932;28;20524;-83
2021/09/08 04:21:13;;;;;;;14.27;10.77;;;12.50;89.70;;;;;;5035638;28;20279;-83
2021/09/08 04:23:38;;;;;;;17.40;12.50;;;12.50;89.70;;;;;;5053606;28;20172;-84
2021/09/08 04:26:04;;;;;;;17.60;11.73;;;12.50;89.70;;;;;;5053575;28;20179;-84
2021/09/08 04:28:30;;;;;;;13.73;10.77;;;12.60;89.70;;;;;;5053847;28;20172;-83
2021/09/08 04:30:56;;;;;;;15.27;11.53;;;12.50;89.70;;;;;;5053720;28;20686;-84
2021/09/08 04:33:21;;;;;;;17.70;12.30;;;12.50;89.50;;;;;;5053386;28;20567;-84
2021/09/08 04:35:47;;;;;;;14.33;11.87;;;12.50;89.50;;;;;;5053750;28;20172;-83
2021/09/08 04:38:13;;;;;;;23.40;13.07;;;12.50;89.50;;;;;;5053785;28;20168;-84
2021/09/08 04:40:38;;;;;;;16.07;12.20;;;12.50;89.60;;;;;;5035451;28;20660;-84
2021/09/08 04:43:04;;;;;;;16.87;11.63;;;12.50;89.60;;;;;;5053291;28;20543;-84
2021/09/08 04:45:30;;;;;;;18.33;11.50;;;12.40;89.50;;;;;;5053295;28;20176;-84
2021/09/08 04:47:56;;;;;;;13.63;10.90;;;12.30;89.60;;;;;;5053128;28;20222;-84
2021/09/08 04:50:22;;;;;;;13.23;11.27;;;12.30;89.60;;;;;;5053190;28;20199;-84
2021/09/08 04:52:47;;;;;;;18.87;10.73;;;12.30;89.70;;;;;;5035074;28;20235;-83
2021/09/08 04:55:13;;;;;;;15.10;12.13;;;12.30;89.70;;;;;;5053240;28;20237;-83
2021/09/08 04:57:39;;;;;;;14.50;12.33;;;12.30;89.80;;;;;;5053196;28;20168;-84
2021/09/08 05:00:07;;;;;;;15.80;12.27;;;12.30;89.90;;;;;;5053096;28;20183;-84
2021/09/08 05:02:36;;;;;;;17.03;13.07;;;12.40;89.90;;;;;;5035007;28;20207;-83
2021/09/08 05:05:02;;;;;;;23.73;12.80;;;12.40;90.00;;;;;;5052524;28;20176;-84
2021/09/08 05:07:28;;;;;;;15.97;12.43;;;12.40;90.10;;;;;;5053445;28;20180;-84
2021/09/08 05:09:54;;;;;;;18.93;11.90;;;12.50;90.10;;;;;;5052991;28;20187;-84
2021/09/08 05:12:19;;;;;;;14.60;11.53;;;12.50;90.20;;;;;;5034869;28;20204;-83
2021/09/08 05:14:45;;;;;;;16.50;11.13;;;12.40;90.10;;;;;;5053254;28;20236;-83
2021/09/08 05:17:11;;;;;;;13.60;11.10;;;12.40;90.10;;;;;;5052937;28;20217;-83
2021/09/08 05:19:36;;;;;;;29.10;12.93;;;12.40;90.20;;;;;;5035434;28;20180;-84
2021/09/08 05:22:02;;;;;;;21.63;13.93;;;12.50;90.20;;;;;;5035084;28;20192;-83
2021/09/08 05:24:28;;;;;;;20.17;12.57;;;12.50;90.20;;;;;;5052823;28;20172;-84
2021/09/08 05:26:54;;;;;;;16.47;12.80;;;12.50;90.40;;;;;;5035138;28;20176;-83
2021/09/08 05:29:19;;;;;;;22.90;13.17;;;12.50;90.40;;;;;;5053052;28;20172;-83
2021/09/08 05:31:45;;;;;;;23.77;14.57;;;12.50;90.50;;;;;;5034926;28;20199;-84
2021/09/08 05:34:11;;;;;;;27.80;14.20;;;12.60;90.60;;;;;;5052892;28;20206;-83
2021/09/08 05:36:36;;;;;;;22.77;13.67;;;12.60;90.70;;;;;;5052824;28;20173;-84
2021/09/08 05:39:03;;;;;;;22.43;14.43;;;12.70;90.70;;;;;;5052766;28;20176;-84
2021/09/08 05:41:29;;;;;;;15.67;13.10;;;12.70;90.90;;;;;;5052866;28;20188;-84
2021/09/08 05:43:55;;;;;;;16.07;13.07;;;12.80;91.00;;;;;;5052694;28;20194;-83
2021/09/08 05:46:20;;;;;;;18.10;14.23;;;12.80;91.00;;;;;;5034786;28;20180;-84
2021/09/08 05:48:46;;;;;;;18.67;14.00;;;12.80;91.00;;;;;;5052765;28;20172;-84
2021/09/08 05:51:12;;;;;;;16.67;14.50;;;12.90;91.20;;;;;;5052529;28;20203;-83
2021/09/08 05:53:38;;;;;;;20.83;14.30;;;12.80;91.10;;;;;;5052816;28;20204;-84
2021/09/08 05:56:04;;;;;;;20.60;14.23;;;12.90;91.20;;;;;;5052523;28;20172;-84
2021/09/08 05:58:29;;;;;;;19.63;14.97;;;12.90;91.40;;;;;;5052630;28;20179;-84
2021/09/08 06:00:55;;;;;;;20.73;15.50;;;13.00;91.60;;;;;;5052766;28;20305;-84
2021/09/08 06:03:21;;;;;;;19.07;15.40;;;13.00;91.80;;;;;;5053698;28;20174;-84
2021/09/08 06:05:47;;;;;;;20.10;16.10;;;13.10;91.90;;;;;;5055471;28;20172;-84
2021/09/08 06:08:12;;;;;;;20.17;15.93;;;13.20;91.90;;;;;;5035340;28;20187;-83
2021/09/08 06:10:38;;;;;;;22.77;16.87;;;13.20;91.90;;;;;;5035615;28;20644;-84
2021/09/08 06:13:04;;;;;;;26.87;18.23;;;13.30;92.00;;;;;;5053080;28;20200;-84
2021/09/08 06:15:29;;;;;;;23.43;17.80;;;13.40;92.10;;;;;;5052685;28;20168;-84
2021/09/08 06:17:55;;;;;;;24.63;17.47;;;13.50;92.20;;;;;;5054648;28;20175;-84
2021/09/08 06:20:21;;;;;;;22.33;17.70;;;13.70;92.30;;;;;;5055986;28;20173;-84
2021/09/08 06:22:46;;;;;;;24.73;17.73;;;13.80;92.30;;;;;;5055854;28;20573;-84
2021/09/08 06:25:12;;;;;;;24.03;18.27;;;13.90;92.30;;;;;;5056072;28;20647;-84
2021/09/08 06:27:38;;;;;;;22.77;18.50;;;13.90;92.30;;;;;;5055819;28;20183;-84
2021/09/08 06:30:05;;;;;;;25.27;19.17;;;14.10;92.40;;;;;;5055799;28;20176;-84
2021/09/08 06:32:31;;;;;;;25.07;18.97;;;14.20;92.50;;;;;;5055665;28;20231;-84
2021/09/08 06:34:57;;;;;;;29.00;18.50;;;14.30;92.40;;;;;;5056117;28;20169;-84
2021/09/08 06:37:22;;;;;;;25.10;18.07;;;14.40;92.20;;;;;;5037805;28;20187;-83
2021/09/08 06:39:48;;;;;;;21.93;17.93;;;14.50;92.10;;;;;;5055730;28;20171;-84
2021/09/08 06:42:15;;;;;;;25.33;18.07;;;14.60;92.00;;;;;;5055498;28;20612;-83
2021/09/08 06:44:42;;;;;;;21.40;18.17;;;14.80;92.10;;;;;;5055496;28;20542;-84
2021/09/08 06:47:07;;;;;;;22.47;18.30;;;14.80;91.80;;;;;;5037794;28;20176;-84
2021/09/08 06:49:33;;;;;;;28.13;17.83;;;14.90;91.70;;;;;;5055408;28;20271;-84
2021/09/08 06:51:59;;;;;;;23.37;17.27;;;15.00;91.60;;;;;;5055183;28;20286;-84
2021/09/08 06:54:25;;;;;;;23.00;17.95;;;15.10;91.40;;;;;;5055639;28;20172;-83
2021/09/08 06:56:50;;;;;;;25.02;18.10;;;15.20;91.40;;;;;;5056003;28;20237;-84
2021/09/08 06:59:16;;;;;;;25.77;18.48;;;15.20;91.30;;;;;;5058547;28;20168;-83
2021/09/08 07:01:42;;;;;;;25.25;18.95;;;15.30;91.40;;;;;;5057744;28;20691;-84
2021/09/08 07:04:08;;;;;;;22.05;17.35;;;15.40;91.40;;;;;;5056862;28;20236;-84
2021/09/08 07:06:33;;;;;;;21.00;17.48;;;15.60;90.80;;;;;;5037954;28;20192;-84
2021/09/08 07:08:59;;;;;;;19.63;16.58;;;15.60;90.70;;;;;;5039599;28;20274;-84
2021/09/08 07:11:25;;;;;;;27.45;17.80;;;15.70;90.80;;;;;;5056947;28;20199;-85
2021/09/08 07:13:50;;;;;;;21.85;17.73;;;15.80;90.30;;;;;;5055408;28;20555;-84
2021/09/08 07:16:16;;;;;;;20.77;17.48;;;15.90;90.10;;;;;;5055076;28;20164;-84
2021/09/08 07:18:42;;;;;;;21.33;16.55;;;16.10;89.50;;;;;;5055560;28;20176;-84
2021/09/08 07:21:07;;;;;;;21.73;18.13;;;16.20;89.40;;;;;;5037102;28;20179;-83
2021/09/08 07:23:33;;;;;;;22.10;18.52;;;16.20;89.40;;;;;;5056180;28;20176;-84
2021/09/08 07:25:59;;;;;;;27.23;17.88;;;16.30;89.50;;;;;;5055405;28;20204;-84
2021/09/08 07:28:25;;;;;;;23.17;18.17;;;16.40;88.90;;;;;;5037036;28;20186;-83
2021/09/08 07:30:53;;;;;;;27.98;18.17;;;16.60;87.90;;;;;;5055468;28;20251;-84
2021/09/08 07:33:20;;;;;;;21.70;16.60;;;16.70;86.70;;;;;;5056265;28;20199;-84
2021/09/08 07:35:47;;;;;;;25.48;19.30;;;16.90;86.60;;;;;;5038264;28;20549;-83
2021/09/08 07:38:14;;;;;;;23.80;19.30;;;17.00;86.50;;;;;;5054731;28;20169;-82
2021/09/08 07:40:40;;;;;;;28.20;19.65;;;17.00;86.10;;;;;;5055934;28;20637;-84
2021/09/08 07:43:06;;;;;;;25.73;17.85;;;17.00;85.50;;;;;;5055128;28;20203;-83
2021/09/08 07:45:31;;;;;;;25.23;19.33;;;17.20;85.70;;;;;;5054893;28;20172;-83
2021/09/08 07:47:57;;;;;;;42.25;18.67;;;17.10;85.90;;;;;;5054739;28;20187;-83
2021/09/08 07:50:23;;;;;;;19.17;16.88;;;17.10;84.90;;;;;;5056120;28;20168;-83
2021/09/08 07:52:49;;;;;;;22.58;17.55;;;17.20;85.20;;;;;;5055760;28;20714;-83
2021/09/08 07:55:14;;;;;;;23.20;18.35;;;17.30;85.70;;;;;;5055554;28;20211;-83
2021/09/08 07:57:40;;;;;;;24.63;18.83;;;17.40;85.60;;;;;;5037075;28;20172;-84
2021/09/08 08:00:06;;;;;;;34.75;18.42;;;17.50;85.60;;;;;;5055596;28;20176;-84
2021/09/08 08:02:51;;;;;;;30.08;21.52;;;17.70;85.80;;;;;;5055156;28;20188;-83
2021/09/08 08:05:18;;;;;;;28.48;18.80;;;17.90;83.70;;;;;;5055537;28;20160;-83
2021/09/08 08:07:45;;;;;;;28.58;20.20;;;18.00;83.10;;;;;;5054639;28;20255;-84
2021/09/08 08:10:11;;;;;;;23.08;16.90;;;18.10;83.30;;;;;;5036313;28;20549;-83
2021/09/08 08:12:37;;;;;;;23.50;17.05;;;18.20;82.20;;;;;;5055388;28;20223;-84
2021/09/08 08:15:04;;;;;;;30.40;21.08;;;18.30;81.80;;;;;;5037186;28;20174;-84
2021/09/08 08:17:30;;;;;;;42.85;32.05;;;18.40;81.30;;;;;;5054477;28;20214;-84
2021/09/08 08:19:55;;;;;;;53.63;40.65;;;18.50;80.80;;;;;;5054061;28;20196;-84
2021/09/08 08:22:21;;;;;;;53.35;36.75;;;18.70;79.90;;;;;;5054299;28;20214;-85
2021/09/08 08:24:46;;;;;;;42.10;29.50;;;18.80;80.80;;;;;;5055237;28;20607;-85
2021/09/08 08:27:12;;;;;;;30.60;21.38;;;18.90;79.90;;;;;;5055862;28;20194;-85
2021/09/08 08:29:38;;;;;;;19.95;16.48;;;19.20;80.20;;;;;;5055385;28;20546;-85
2021/09/08 08:32:04;;;;;;;18.83;15.43;;;19.30;78.60;;;;;;5055707;28;20206;-84
2021/09/08 08:34:30;;;;;;;22.65;16.27;;;19.40;76.80;;;;;;5037853;28;20172;-83
2021/09/08 08:36:56;;;;;;;19.65;14.55;;;19.50;77.60;;;;;;5056554;28;20251;-84
2021/09/08 08:39:22;;;;;;;18.00;14.20;;;19.60;75.90;;;;;;5054782;28;20207;-84
2021/09/08 08:41:48;;;;;;;23.98;14.95;;;19.70;75.60;;;;;;5055243;28;20227;-84
2021/09/08 08:44:18;;;;;;;20.60;14.43;;;19.70;75.20;;;;;;5055574;28;20199;-85
2021/09/08 08:46:44;;;;;;;16.75;12.52;;;19.70;75.00;;;;;;5056381;28;20609;-85
2021/09/08 08:49:10;;;;;;;17.30;14.45;;;19.70;75.10;;;;;;5056489;28;20175;-85
2021/09/08 08:51:35;;;;;;;21.52;13.88;;;19.70;74.40;;;;;;5056313;28;20215;-85
2021/09/08 08:54:01;;;;;;;18.60;12.75;;;19.80;74.90;;;;;;5056131;28;20203;-85
2021/09/08 08:56:27;;;;;;;18.13;12.95;;;19.90;73.70;;;;;;5037697;28;20553;-86
2021/09/08 08:58:54;;;;;;;17.20;11.82;;;20.00;73.60;;;;;;5055532;28;20176;-85
2021/09/08 09:01:25;;;;;;;18.40;10.48;;;20.20;74.70;;;;;;5036915;28;20195;-86
2021/09/08 09:03:57;;;;;;;13.45;9.95;;;20.30;74.40;;;;;;5054296;28;20167;-85
2021/09/08 09:06:24;;;;;;;14.80;11.30;;;20.40;72.80;;;;;;5053486;28;20179;-86
2021/09/08 09:08:58;;;;;;;12.88;10.30;;;20.60;73.70;;;;;;5053738;28;20175;-86
2021/09/08 09:11:24;;;;;;;12.93;11.10;;;20.70;71.70;;;;;;5053573;28;20203;-85
2021/09/08 09:13:49;;;;;;;15.70;10.13;;;20.80;70.50;;;;;;5053710;28;20196;-85
2021/09/08 09:16:15;;;;;;;13.43;11.00;;;20.90;70.40;;;;;;5053927;28;20600;-85
2021/09/08 09:18:43;;;;;;;13.15;10.82;;;21.00;69.90;;;;;;5053233;28;20236;-85
2021/09/08 09:21:15;;;;;;;15.45;9.70;;;21.10;70.00;;;;;;5055212;28;20611;-84
2021/09/08 09:23:53;;;;;;;14.77;12.57;;;21.20;71.60;;;;;;5053487;28;20175;-84
2021/09/08 09:26:30;;;;;;;20.55;15.40;;;21.30;69.00;;;;;;5053461;28;20163;-84
2021/09/08 09:29:18;;;;;;;16.83;12.60;;;21.50;70.20;;;;;;5053818;28;20160;-84
2021/09/08 09:31:52;;;;;;;14.65;9.85;;;21.50;69.20;;;;;;5053182;28;20241;-84
2021/09/08 09:34:18;;;;;;;11.55;9.40;;;21.60;69.30;;;;;;5035315;28;20210;-84
2021/09/08 09:36:44;;;;;;;19.60;10.23;;;21.70;69.80;;;;;;5053234;28;20172;-85
2021/09/08 09:39:10;;;;;;;12.75;10.38;;;21.90;68.20;;;;;;5034948;28;20180;-86
2021/09/08 09:41:36;;;;;;;16.63;10.63;;;22.00;69.10;;;;;;5053493;28;20192;-86
2021/09/08 09:44:10;;;;;;;11.93;9.57;;;22.10;67.20;;;;;;5036515;28;20346;-86
2021/09/08 09:46:44;;;;;;;13.18;9.60;;;22.20;67.20;;;;;;5035144;28;20176;-85
2021/09/08 09:49:11;;;;;;;15.82;9.38;;;22.20;67.90;;;;;;5034869;28;20160;-86
2021/09/08 09:51:37;;;;;;;13.75;10.32;;;22.30;65.40;;;;;;5036597;28;20822;-86
2021/09/08 09:54:03;;;;;;;13.38;9.98;;;22.20;66.30;;;;;;5056435;28;20295;-86
2021/09/08 09:56:29;;;;;;;13.88;9.70;;;22.30;68.00;;;;;;5038592;28;20208;-86
2021/09/08 09:58:55;;;;;;;19.52;9.50;;;22.30;66.40;;;;;;5056441;28;20183;-86
2021/09/08 10:01:20;;;;;;;12.18;9.52;;;22.50;65.00;;;;;;5038849;28;20278;-86
2021/09/08 10:03:47;;;;;;;12.00;8.38;;;22.70;63.70;;;;;;5057356;28;20255;-86
2021/09/08 10:06:13;;;;;;;10.68;8.65;;;22.70;63.50;;;;;;5039297;28;20202;-86
2021/09/08 10:08:45;;;;;;;10.73;9.40;;;22.70;63.80;;;;;;5056772;28;20317;-86
2021/09/08 10:11:14;;;;;;;14.68;10.27;;;22.60;64.40;;;;;;5038756;28;20203;-86
2021/09/08 10:13:50;;;;;;;23.00;10.52;;;22.60;65.30;;;;;;5056510;28;20192;-86
2021/09/08 10:16:17;;;;;;;12.88;9.73;;;22.80;65.50;;;;;;5038754;28;20164;-86
2021/09/08 10:18:46;;;;;;;15.43;10.30;;;22.80;64.90;;;;;;5056299;28;20161;-86
2021/09/08 10:21:14;;;;;;;17.52;9.55;;;22.90;64.50;;;;;;5038154;28;20291;-86
2021/09/08 10:23:44;;;;;;;14.00;9.77;;;23.00;62.30;;;;;;5056041;28;20255;-86
2021/09/08 10:26:15;;;;;;;17.00;9.60;;;23.10;64.50;;;;;;5056368;28;20176;-86
2021/09/08 10:28:42;;;;;;;13.73;8.82;;;23.30;64.40;;;;;;5056757;28;20160;-86
2021/09/08 10:31:10;;;;;;;11.43;9.65;;;23.50;62.80;;;;;;5038530;28;20183;-86
2021/09/08 10:33:37;;;;;;;13.13;10.02;;;23.60;59.30;;;;;;5038050;28;20200;-86
2021/09/08 10:36:03;;;;;;;9.90;8.70;;;23.60;61.30;;;;;;5038119;28;20259;-86
2021/09/08 10:38:31;;;;;;;15.50;7.85;;;23.60;60.60;;;;;;5055658;28;20279;-86
2021/09/08 10:40:58;;;;;;;12.20;8.45;;;23.60;59.60;;;;;;5055888;28;20249;-86
2021/09/08 10:43:37;;;;;;;13.60;9.05;;;23.50;59.50;;;;;;5037835;28;20175;-86
2021/09/08 10:46:04;;;;;;;11.48;7.97;;;23.60;58.70;;;;;;5056485;28;20528;-86
2021/09/08 10:48:39;;;;;;;15.57;8.90;;;23.60;59.40;;;;;;5055674;28;20172;-86
2021/09/08 10:51:06;;;;;;;10.95;8.52;;;23.70;60.50;;;;;;5055294;28;20165;-86
2021/09/08 10:53:33;;;;;;;11.90;8.27;;;23.70;61.80;;;;;;5037523;28;20263;-86
2021/09/08 10:56:00;;;;;;;16.05;9.32;;;23.90;60.80;;;;;;5055394;28;20174;-86
2021/09/08 10:58:59;;;;;;;15.40;10.32;;;24.00;60.30;;;;;;5055658;28;20581;-86
2021/09/08 11:01:25;;;;;;;11.95;10.25;;;24.20;57.40;;;;;;5037657;28;20675;-87
2021/09/08 11:03:51;;;;;;;17.42;10.70;;;24.20;58.70;;;;;;5036891;28;20215;-86
2021/09/08 11:06:30;;;;;;;14.95;11.05;;;24.30;58.50;;;;;;5055421;28;20558;-86
2021/09/08 11:09:00;;;;;;;12.07;9.52;;;24.20;57.40;;;;;;5038394;28;20167;-86
2021/09/08 11:11:26;;;;;;;13.02;10.05;;;24.50;59.70;;;;;;5037341;28;20219;-86
2021/09/08 11:13:54;;;;;;;12.10;9.52;;;24.60;56.70;;;;;;5055077;28;20231;-86
2021/09/08 11:16:23;;;;;;;10.10;8.27;;;24.70;57.30;;;;;;5054924;28;20251;-86
2021/09/08 11:18:49;;;;;;;11.18;7.85;;;24.80;58.50;;;;;;5037242;28;20183;-86
2021/09/08 11:21:16;;;;;;;15.93;8.75;;;24.90;56.70;;;;;;5054934;28;20672;-86
2021/09/08 11:23:42;;;;;;;10.95;7.28;;;24.90;56.00;;;;;;5054999;28;20176;-86
2021/09/08 11:26:10;;;;;;;9.07;5.95;;;24.80;54.90;;;;;;5054960;28;20251;-86
2021/09/08 11:28:38;;;;;;;8.73;6.80;;;24.70;54.70;;;;;;5036947;28;20672;-86
2021/09/08 11:31:18;;;;;;;8.43;5.82;;;24.70;54.80;;;;;;5037063;28;20198;-86
2021/09/08 11:33:44;;;;;;;14.38;6.30;;;24.60;55.00;;;;;;5054740;28;20555;-86
2021/09/08 11:36:19;;;;;;;10.27;7.20;;;24.60;54.80;;;;;;5054700;28;20168;-86
2021/09/08 11:38:56;;;;;;;8.35;6.32;;;24.50;55.10;;;;;;5054661;28;20179;-86
2021/09/08 11:41:22;;;;;;;8.05;6.60;;;24.60;55.10;;;;;;5036868;28;20219;-86
2021/09/08 11:43:53;;;;;;;10.77;6.32;;;24.60;54.80;;;;;;5037255;28;20332;-86
2021/09/08 11:46:31;;;;;;;8.13;6.55;;;24.60;55.80;;;;;;5054940;28;20681;-86
2021/09/08 11:49:07;;;;;;;9.57;6.47;;;24.70;55.80;;;;;;5036450;28;20172;-86
2021/09/08 11:51:35;;;;;;;6.05;5.45;;;24.90;56.20;;;;;;5054176;28;20210;-86
2021/09/08 11:54:04;;;;;;;8.68;5.82;;;25.00;55.80;;;;;;5054167;28;20200;-86
2021/09/08 11:56:31;;;;;;;6.55;5.90;;;24.70;54.80;;;;;;5054531;28;20172;-86
2021/09/08 11:58:59;;;;;;;7.30;6.10;;;24.50;55.20;;;;;;5054277;28;20643;-86
2021/09/08 12:01:25;;;;;;;14.23;7.47;;;24.60;55.80;;;;;;5036158;28;20204;-86
2021/09/08 12:03:56;;;;;;;10.35;6.28;;;24.80;55.90;;;;;;5054426;28;20164;-86
2021/09/08 12:06:24;;;;;;;14.15;6.40;;;24.80;55.10;;;;;;5036262;28;20161;-86
2021/09/08 12:09:03;;;;;;;8.77;6.78;;;24.80;54.60;;;;;;5053999;28;20263;-86
2021/09/08 12:11:39;;;;;;;6.68;5.70;;;24.80;52.80;;;;;;5054227;28;20188;-86
2021/09/08 12:14:34;;;;;;;9.43;6.57;;;24.80;55.30;;;;;;5053871;28;20679;-86
2021/09/08 12:17:15;;;;;;;8.68;6.72;;;24.70;54.80;;;;;;5053967;28;20608;-86
2021/09/08 12:19:43;;;;;;;10.70;6.38;;;24.60;55.90;;;;;;5054071;28;20167;-86
2021/09/08 12:22:20;;;;;;;11.50;6.47;;;24.70;55.20;;;;;;5053606;28;20184;-86
2021/09/08 12:24:50;;;;;;;8.57;5.85;;;25.00;54.20;;;;;;5053718;28;20576;-86
2021/09/08 12:27:33;;;;;;;9.48;5.30;;;25.20;54.50;;;;;;5053563;28;20218;-86
2021/09/08 12:30:31;;;;;;;13.77;6.40;;;25.10;54.30;;;;;;5053681;28;20183;-86